Time;durP1;ratioP1;P1;durP2;ratioP2;P2;SDS_P1;SDS_P2;PMS_P1;PMS_P2;Temp;Humidity;BMP_temperature;BMP_pressure;BME280_temperature;BME280_humidity;BME280_pressure;Samples;Min_cycle;Max_cycle;Signal;HPM_P1;HPM_P2
2022/02/23 00:01:04;;;;;;;;;;;;;;;28.56;23.71;100562.84;5069687;28;745;-42
2022/02/23 00:03:29;;;;;;;;;;;;;;;28.68;23.62;100560.38;5075678;28;1894;-42
2022/02/23 00:05:54;;;;;;;;;;;;;;;28.83;23.61;100574.66;5075691;28;801;-42
2022/02/23 00:08:20;;;;;;;;;;;;;;;29.03;23.37;100573.16;5076059;28;805;-42
2022/02/23 00:10:45;;;;;;;;;;;;;;;28.72;23.38;100570.66;5077003;28;1063;-42
2022/02/23 00:13:10;;;;;;;;;;;;;;;28.71;23.32;100568.97;5076759;28;929;-42
2022/02/23 00:15:36;;;;;;;;;;;;;;;28.75;23.44;100576.69;5077717;28;873;-42
2022/02/23 00:18:01;;;;;;;;;;;;;;;28.53;23.64;100576.75;5079807;28;837;-42
2022/02/23 00:20:27;;;;;;;;;;;;;;;28.78;23.83;100566.28;5079591;28;746;-42
2022/02/23 00:22:52;;;;;;;;;;;;;;;29.07;23.41;100572.53;5079809;28;1961;-42
2022/02/23 00:25:17;;;;;;;;;;;;;;;28.92;23.50;100575.34;5073621;28;865;-42
2022/02/23 00:27:43;;;;;;;;;;;;;;;28.73;23.66;100566.91;5078976;28;829;-42
2022/02/23 00:30:08;;;;;;;;;;;;;;;28.81;23.39;100576.72;5077111;28;891;-42
2022/02/23 00:32:33;;;;;;;;;;;;;;;29.07;23.30;100566.28;5078622;28;1005;-42
2022/02/23 00:34:59;;;;;;;;;;;;;;;29.20;23.07;100565.50;5078992;28;901;-43
2022/02/23 00:37:24;;;;;;;;;;;;;;;28.92;23.58;100560.97;5079088;28;787;-42
2022/02/23 00:39:49;;;;;;;;;;;;;;;28.92;23.46;100560.97;5077619;28;862;-42
2022/02/23 00:42:15;;;;;;;;;;;;;;;28.91;23.29;100564.72;5079489;28;785;-42
2022/02/23 00:44:40;;;;;;;;;;;;;;;28.58;23.99;100561.59;5079188;28;1914;-42
2022/02/23 00:47:05;;;;;;;;;;;;;;;28.57;24.09;100554.53;5074285;28;936;-42
2022/02/23 00:49:31;;;;;;;;;;;;;;;29.03;23.65;100557.72;5079197;28;912;-42
2022/02/23 00:51:56;;;;;;;;;;;;;;;28.83;23.54;100554.84;5078579;28;801;-42
2022/02/23 00:54:21;;;;;;;;;;;;;;;28.80;23.59;100566.09;5079041;28;807;-44
2022/02/23 00:56:47;;;;;;;;;;;;;;;28.76;23.87;100571.06;5079194;28;828;-42
2022/02/23 00:59:12;;;;;;;;;;;;;;;29.14;23.63;100574.44;5078813;28;814;-42
2022/02/23 01:01:38;;;;;;;;;;;;;;;29.18;23.38;100571.13;5074210;28;819;-42
2022/02/23 01:04:04;;;;;;;;;;;;;;;28.86;23.73;100573.44;5076375;28;1901;-44
2022/02/23 01:06:29;;;;;;;;;;;;;;;28.94;23.64;100581.41;5078805;28;865;-42
2022/02/23 01:08:54;;;;;;;;;;;;;;;28.96;23.39;100573.88;5079016;28;730;-43
2022/02/23 01:11:20;;;;;;;;;;;;;;;28.70;23.88;100577.28;5078837;28;1066;-42
2022/02/23 01:13:49;;;;;;;;;;;;;;;28.68;24.11;100579.34;5078461;28;785;-42
2022/02/23 01:16:14;;;;;;;;;;;;;;;29.20;23.48;100579.88;5076545;28;882;-43
2022/02/23 01:18:40;;;;;;;;;;;;;;;28.88;23.47;100584.06;5078736;28;893;-42
2022/02/23 01:21:05;;;;;;;;;;;;;;;28.96;23.38;100592.03;5078387;28;921;-42
2022/02/23 01:23:30;;;;;;;;;;;;;;;29.02;23.91;100598.53;5077128;28;1870;-42
2022/02/23 01:25:56;;;;;;;;;;;;;;;29.23;23.70;100610.31;5078480;28;826;-43
2022/02/23 01:28:21;;;;;;;;;;;;;;;28.90;23.61;100612.59;5077272;28;804;-42
2022/02/23 01:30:46;;;;;;;;;;;;;;;29.04;23.13;100616.28;5076735;28;879;-42
2022/02/23 01:33:12;;;;;;;;;;;;;;;29.01;23.40;100618.53;5078162;28;1108;-42
2022/02/23 01:35:37;;;;;;;;;;;;;;;28.72;24.01;100616.66;5077827;28;853;-42
2022/02/23 01:38:02;;;;;;;;;;;;;;;28.72;23.93;100622.06;5078241;28;816;-43
2022/02/23 01:40:28;;;;;;;;;;;;;;;29.04;23.73;100629.81;5077991;28;795;-42
2022/02/23 01:42:53;;;;;;;;;;;;;;;28.82;23.93;100642.53;5075307;28;1910;-42
2022/02/23 01:45:18;;;;;;;;;;;;;;;28.87;23.78;100645.50;5074987;28;1118;-42
2022/02/23 01:47:44;;;;;;;;;;;;;;;28.70;24.07;100634.97;5077665;28;1173;-42
2022/02/23 01:50:09;;;;;;;;;;;;;;;29.20;23.56;100644.91;5076176;28;1217;-42
2022/02/23 01:52:35;;;;;;;;;;;;;;;29.14;23.51;100650.28;5078140;28;805;-42
2022/02/23 01:55:00;;;;;;;;;;;;;;;28.93;23.80;100654.69;5077311;28;821;-42
2022/02/23 01:57:25;;;;;;;;;;;;;;;29.00;24.05;100666.44;5077472;28;873;-43
2022/02/23 01:59:51;;;;;;;;;;;;;;;27.53;22.66;100667.44;5077979;28;777;-42
2022/02/23 02:02:16;;;;;;;;;;;;;;;26.58;22.98;100664.13;5073849;28;946;-42
2022/02/23 02:04:42;;;;;;;;;;;;;;;26.27;23.22;100665.00;5076912;28;1966;-42
2022/02/23 02:07:07;;;;;;;;;;;;;;;26.29;23.22;100663.78;5072653;28;908;-42
2022/02/23 02:09:33;;;;;;;;;;;;;;;26.22;23.47;100659.31;5077141;28;824;-42
2022/02/23 02:11:58;;;;;;;;;;;;;;;26.00;23.40;100659.94;5077425;28;1150;-42
2022/02/23 02:14:23;;;;;;;;;;;;;;;26.09;23.07;100655.34;5077645;28;810;-42
2022/02/23 02:16:50;;;;;;;;;;;;;;;26.12;23.10;100663.09;5076969;28;844;-42
2022/02/23 02:19:15;;;;;;;;;;;;;;;26.01;23.63;100666.16;5076590;28;1052;-42
2022/02/23 02:21:53;;;;;;;;;;;;;;;25.80;23.33;100657.72;5076601;28;773;-42
2022/02/23 02:24:19;;;;;;;;;;;;;;;25.77;23.63;100663.44;5077011;28;1906;-42
2022/02/23 02:26:45;;;;;;;;;;;;;;;25.68;23.68;100665.34;5092228;28;823;-44
2022/02/23 02:29:10;;;;;;;;;;;;;;;25.74;23.73;100666.47;5077248;28;833;-42
2022/02/23 02:31:35;;;;;;;;;;;;;;;25.47;23.96;100665.91;5071744;28;889;-42
2022/02/23 02:34:01;;;;;;;;;;;;;;;25.46;23.61;100666.06;5076388;28;1291;-42
2022/02/23 02:36:26;;;;;;;;;;;;;;;25.32;23.67;100673.84;5077019;28;789;-42
2022/02/23 02:38:51;;;;;;;;;;;;;;;25.17;23.91;100677.22;5077017;28;782;-42
2022/02/23 02:41:16;;;;;;;;;;;;;;;25.04;24.08;100687.72;5076790;28;1009;-42
2022/02/23 02:43:42;;;;;;;;;;;;;;;25.10;23.92;100695.09;5076949;28;1976;-42
2022/02/23 02:46:07;;;;;;;;;;;;;;;25.16;24.05;100698.94;5074334;28;798;-42
2022/02/23 02:48:32;;;;;;;;;;;;;;;25.05;24.25;100701.00;5076773;28;899;-42
2022/02/23 02:50:57;;;;;;;;;;;;;;;25.04;24.24;100696.59;5076552;28;963;-42
2022/02/23 02:53:23;;;;;;;;;;;;;;;24.92;24.10;100703.38;5076423;28;801;-43
2022/02/23 02:55:48;;;;;;;;;;;;;;;24.86;24.24;100702.16;5076406;28;808;-43
2022/02/23 02:58:13;;;;;;;;;;;;;;;25.14;24.25;100707.19;5076185;28;854;-41
2022/02/23 03:00:39;;;;;;;;;;;;;;;24.89;23.98;100709.88;5075005;28;829;-42
2022/02/23 03:03:04;;;;;;;;;;;;;;;24.84;24.14;100706.84;5076193;28;1963;-41
2022/02/23 03:05:31;;;;;;;;;;;;;;;24.82;24.12;100725.03;5076360;28;813;-42
2022/02/23 03:07:56;;;;;;;;;;;;;;;24.53;24.24;100721.81;5076947;28;844;-42
2022/02/23 03:10:22;;;;;;;;;;;;;;;24.51;24.47;100712.22;5074014;28;1071;-41
2022/02/23 03:12:47;;;;;;;;;;;;;;;24.40;24.32;100708.00;5076250;28;738;-40
2022/02/23 03:15:12;;;;;;;;;;;;;;;24.46;24.28;100710.03;5076148;28;882;-40
2022/02/23 03:17:37;;;;;;;;;;;;;;;24.63;24.01;100713.59;5076386;28;822;-41
2022/02/23 03:20:03;;;;;;;;;;;;;;;24.50;24.28;100708.69;5075905;28;811;-43
2022/02/23 03:22:29;;;;;;;;;;;;;;;24.41;24.27;100694.41;5076444;28;780;-41
2022/02/23 03:24:54;;;;;;;;;;;;;;;24.48;24.18;100708.03;5075730;28;1901;-41
2022/02/23 03:27:19;;;;;;;;;;;;;;;24.47;24.12;100703.66;5075746;28;856;-41
2022/02/23 03:29:45;;;;;;;;;;;;;;;24.41;24.21;100705.16;5076523;28;793;-42
2022/02/23 03:32:10;;;;;;;;;;;;;;;24.37;24.20;100701.13;5071690;28;1154;-41
2022/02/23 03:34:35;;;;;;;;;;;;;;;25.04;23.94;100706.56;5075816;28;801;-42
2022/02/23 03:37:01;;;;;;;;;;;;;;;25.01;24.02;100712.25;5075644;28;813;-42
2022/02/23 03:39:26;;;;;;;;;;;;;;;25.13;23.99;100712.75;5076346;28;830;-43
2022/02/23 03:41:51;;;;;;;;;;;;;;;25.17;24.15;100723.00;5076038;28;721;-42
2022/02/23 03:44:17;;;;;;;;;;;;;;;25.34;23.84;100719.47;5075469;28;1977;-43
2022/02/23 03:46:42;;;;;;;;;;;;;;;25.59;23.71;100719.38;5074182;28;883;-34
2022/02/23 03:49:07;;;;;;;;;;;;;;;25.57;23.95;100714.19;5076085;28;897;-35
2022/02/23 03:51:33;;;;;;;;;;;;;;;25.58;24.00;100710.47;5080358;28;841;-35
2022/02/23 03:53:58;;;;;;;;;;;;;;;25.67;24.13;100711.31;5080161;28;819;-35
2022/02/23 03:56:38;;;;;;;;;;;;;;;25.88;23.90;100709.84;5080166;28;773;-35
2022/02/23 03:59:06;;;;;;;;;;;;;;;25.99;23.82;100712.16;5080347;28;836;-34
2022/02/23 04:01:32;;;;;;;;;;;;;;;25.94;23.65;100717.25;5074623;28;1166;-35
2022/02/23 04:03:57;;;;;;;;;;;;;;;25.72;23.86;100727.78;5080056;28;1902;-35
2022/02/23 04:06:23;;;;;;;;;;;;;;;25.76;24.19;100734.50;5079785;28;865;-35
2022/02/23 04:08:49;;;;;;;;;;;;;;;25.98;24.00;100731.22;5080009;28;840;-35
2022/02/23 04:11:14;;;;;;;;;;;;;;;25.79;23.80;100739.53;5077391;28;1439;-43
2022/02/23 04:13:39;;;;;;;;;;;;;;;25.17;23.71;100739.16;5079645;28;980;-43
2022/02/23 04:16:05;;;;;;;;;;;;;;;24.67;23.87;100741.00;5073671;28;832;-42
2022/02/23 04:18:30;;;;;;;;;;;;;;;24.33;24.29;100735.56;5079233;28;927;-43
2022/02/23 04:20:56;;;;;;;;;;;;;;;24.31;24.29;100729.50;5079009;28;1177;-43
2022/02/23 04:23:21;;;;;;;;;;;;;;;24.58;23.84;100735.59;5079655;28;1950;-42
2022/02/23 04:25:46;;;;;;;;;;;;;;;24.38;23.98;100740.44;5079013;28;904;-44
2022/02/23 04:28:12;;;;;;;;;;;;;;;24.54;23.80;100746.88;5077983;28;1077;-43
2022/02/23 04:30:37;;;;;;;;;;;;;;;24.35;23.60;100740.78;5070960;28;889;-42
2022/02/23 04:33:02;;;;;;;;;;;;;;;24.41;23.71;100750.00;5077214;28;1230;-43
2022/02/23 04:35:28;;;;;;;;;;;;;;;24.27;23.69;100752.34;5079057;28;896;-43
2022/02/23 04:37:53;;;;;;;;;;;;;;;24.26;23.67;100749.81;5079333;28;805;-43
2022/02/23 04:40:18;;;;;;;;;;;;;;;24.24;23.49;100749.97;5078905;28;757;-43
2022/02/23 04:42:43;;;;;;;;;;;;;;;24.28;23.44;100753.19;5078512;28;1906;-44
2022/02/23 04:45:09;;;;;;;;;;;;;;;24.39;23.48;100765.50;5078946;28;873;-42
2022/02/23 04:47:34;;;;;;;;;;;;;;;24.33;23.43;100765.13;5077548;28;966;-41
2022/02/23 04:49:59;;;;;;;;;;;;;;;24.31;23.37;100766.28;5078684;28;773;-43
2022/02/23 04:52:25;;;;;;;;;;;;;;;24.16;23.31;100764.22;5078653;28;816;-43
2022/02/23 04:54:51;;;;;;;;;;;;;;;24.33;23.44;100770.50;5078140;28;1134;-44
2022/02/23 04:57:17;;;;;;;;;;;;;;;23.99;24.41;100771.34;5083911;28;1412;-43
2022/02/23 04:59:42;;;;;;;;;;;;;;;24.18;23.84;100781.03;5079666;28;1359;-43
2022/02/23 05:02:09;;;;;;;;;;;;;;;24.49;23.95;100786.84;5079132;28;1340;-42
2022/02/23 05:04:35;;;;;;;;;;;;;;;24.82;23.80;100786.91;5082197;28;1882;-44
2022/02/23 05:07:00;;;;;;;;;;;;;;;24.89;23.76;100779.00;5081425;28;1210;-43
2022/02/23 05:09:25;;;;;;;;;;;;;;;24.94;23.99;100784.78;5084348;28;1411;-43
2022/02/23 05:11:50;;;;;;;;;;;;;;;25.02;23.92;100794.69;5079263;28;1248;-42
2022/02/23 05:14:16;;;;;;;;;;;;;;;25.26;23.75;100796.53;5078061;28;939;-44
2022/02/23 05:16:41;;;;;;;;;;;;;;;25.28;24.09;100807.13;5075322;28;1460;-43
2022/02/23 05:19:06;;;;;;;;;;;;;;;25.50;23.83;100800.22;5081699;28;1126;-43
2022/02/23 05:21:32;;;;;;;;;;;;;;;25.56;24.53;100813.00;5082824;28;1593;-44
2022/02/23 05:23:57;;;;;;;;;;;;;;;25.48;24.37;100807.63;5073129;28;1985;-43
2022/02/23 05:26:22;;;;;;;;;;;;;;;25.52;24.39;100835.91;5084912;28;1325;-43
2022/02/23 05:28:48;;;;;;;;;;;;;;;25.50;24.50;100827.16;5080330;28;1519;-43
2022/02/23 05:31:13;;;;;;;;;;;;;;;25.41;24.66;100830.84;5081391;28;1522;-44
2022/02/23 05:33:38;;;;;;;;;;;;;;;25.58;24.30;100828.13;5081548;28;1336;-44
2022/02/23 05:36:04;;;;;;;;;;;;;;;25.68;24.13;100834.22;5077629;28;1471;-43
2022/02/23 05:38:29;;;;;;;;;;;;;;;25.54;24.11;100839.25;5075794;28;1194;-44
2022/02/23 05:40:57;;;;;;;;;;;;;;;25.52;24.61;100846.69;5080091;28;1211;-43
2022/02/23 05:43:23;;;;;;;;;;;;;;;25.59;24.49;100851.38;5070810;28;1909;-43
2022/02/23 05:45:48;;;;;;;;;;;;;;;25.80;23.90;100857.09;5077275;28;1464;-43
2022/02/23 05:48:13;;;;;;;;;;;;;;;25.77;24.37;100856.59;5072946;28;1414;-43
2022/02/23 05:50:39;;;;;;;;;;;;;;;25.62;24.36;100869.91;5071646;28;1300;-44
2022/02/23 05:53:04;;;;;;;;;;;;;;;25.60;24.39;100875.44;5074540;28;1272;-44
2022/02/23 05:55:29;;;;;;;;;;;;;;;25.62;24.61;100872.59;5076860;28;1523;-43
2022/02/23 05:57:54;;;;;;;;;;;;;;;25.72;24.44;100870.59;5070158;28;1327;-42
2022/02/23 06:00:20;;;;;;;;;;;;;;;25.76;24.44;100871.91;5072413;28;1379;-42
2022/02/23 06:02:45;;;;;;;;;;;;;;;25.66;24.42;100879.34;5076351;28;1957;-43
2022/02/23 06:05:10;;;;;;;;;;;;;;;25.63;24.46;100879.69;5077438;28;959;-43
2022/02/23 06:07:36;;;;;;;;;;;;;;;25.54;24.62;100878.84;5083121;28;1281;-43
2022/02/23 06:10:01;;;;;;;;;;;;;;;25.67;24.93;100881.03;5071264;28;1423;-43
2022/02/23 06:12:26;;;;;;;;;;;;;;;25.78;24.72;100880.69;5081071;28;1303;-43
2022/02/23 06:14:52;;;;;;;;;;;;;;;25.63;24.90;100885.91;5081893;28;1380;-43
2022/02/23 06:17:18;;;;;;;;;;;;;;;25.40;25.09;100885.72;5078385;28;1242;-44
2022/02/23 06:19:43;;;;;;;;;;;;;;;25.35;25.02;100891.63;5088892;28;1534;-43
2022/02/23 06:22:09;;;;;;;;;;;;;;;25.37;25.13;100886.91;5078824;28;1367;-44
2022/02/23 06:24:34;;;;;;;;;;;;;;;25.47;24.83;100896.66;5076656;28;1894;-43
2022/02/23 06:26:59;;;;;;;;;;;;;;;25.51;25.08;100901.53;5079125;28;1249;-43
2022/02/23 06:29:25;;;;;;;;;;;;;;;25.40;25.20;100902.72;5077026;28;899;-43
2022/02/23 06:31:57;;;;;;;;;;;;;;;25.34;24.71;100907.94;5074544;28;1157;-42
2022/02/23 06:34:22;;;;;;;;;;;;;;;25.30;24.95;100918.19;5077051;28;1158;-42
2022/02/23 06:36:48;;;;;;;;;;;;;;;25.26;25.42;100917.69;5081347;28;1530;-43
2022/02/23 06:39:13;;;;;;;;;;;;;;;25.37;25.27;100930.00;5082715;28;1257;-42
2022/02/23 06:41:38;;;;;;;;;;;;;;;25.43;24.99;100931.16;5080990;28;821;-42
2022/02/23 06:44:04;;;;;;;;;;;;;;;25.40;25.06;100931.50;5075315;28;1910;-42
2022/02/23 06:46:29;;;;;;;;;;;;;;;25.48;24.94;100936.91;5075232;28;1277;-44
2022/02/23 06:48:54;;;;;;;;;;;;;;;25.58;24.88;100935.88;5075624;28;1300;-44
2022/02/23 06:51:20;;;;;;;;;;;;;;;25.77;25.13;100942.81;5075111;28;1504;-43
2022/02/23 06:53:46;;;;;;;;;;;;;;;25.80;25.27;100945.19;5076245;28;1309;-43
2022/02/23 06:56:12;;;;;;;;;;;;;;;25.83;25.37;100954.75;5074728;28;1202;-44
2022/02/23 06:58:48;;;;;;;;;;;;;;;25.79;25.56;100956.97;5074235;28;1301;-43
2022/02/23 07:01:14;;;;;;;;;;;;;;;25.94;25.51;100957.13;5065737;28;1358;-44
2022/02/23 07:03:40;;;;;;;;;;;;;;;25.84;26.02;100968.06;5075876;28;1901;-43
2022/02/23 07:06:05;;;;;;;;;;;;;;;25.93;26.71;100974.31;5076345;28;1436;-44
2022/02/23 07:08:30;;;;;;;;;;;;;;;25.86;26.51;100973.31;5080127;28;1338;-46
2022/02/23 07:10:55;;;;;;;;;;;;;;;25.97;26.10;100978.34;5074771;28;1270;-45
2022/02/23 07:13:21;;;;;;;;;;;;;;;25.86;26.47;100981.41;5075002;28;1338;-43
2022/02/23 07:15:46;;;;;;;;;;;;;;;26.08;26.61;100987.09;5075998;28;1193;-44
2022/02/23 07:18:11;;;;;;;;;;;;;;;26.18;26.28;100995.84;5075808;28;1389;-43
2022/02/23 07:20:37;;;;;;;;;;;;;;;26.00;26.50;100991.50;5072789;28;1289;-43
2022/02/23 07:23:02;;;;;;;;;;;;;;;26.04;26.15;100989.31;5075355;28;1957;-43
2022/02/23 07:25:28;;;;;;;;;;;;;;;26.06;26.56;100999.91;5070850;28;1515;-44
2022/02/23 07:27:53;;;;;;;;;;;;;;;26.17;26.57;100995.00;5074614;28;1233;-43
2022/02/23 07:30:19;;;;;;;;;;;;;;;26.34;26.57;101005.78;5072165;28;1219;-44
2022/02/23 07:32:44;;;;;;;;;;;;;;;26.28;26.70;101010.00;5075416;28;1326;-44
2022/02/23 07:35:14;;;;;;;;;;;;;;;26.20;26.53;101001.06;5074881;28;1534;-44
2022/02/23 07:37:41;;;;;;;;;;;;;;;26.26;27.09;101006.63;5069448;28;1135;-48
2022/02/23 07:40:08;;;;;;;;;;;;;;;26.25;26.90;101009.50;5074151;28;1277;-44
2022/02/23 07:42:34;;;;;;;;;;;;;;;26.40;28.04;101012.34;5075559;28;1535;-43
2022/02/23 07:45:00;;;;;;;;;;;;;;;26.53;28.35;101015.38;5075369;28;1910;-42
2022/02/23 07:47:26;;;;;;;;;;;;;;;26.51;27.55;101017.38;5075751;28;1237;-41
2022/02/23 07:49:51;;;;;;;;;;;;;;;26.36;27.60;101011.84;5074874;28;1436;-46
2022/02/23 07:52:17;;;;;;;;;;;;;;;26.31;27.37;101021.47;5073064;28;1349;-45
2022/02/23 07:54:42;;;;;;;;;;;;;;;26.77;28.55;101019.03;5080486;28;1383;-43
2022/02/23 07:57:08;;;;;;;;;;;;;;;27.13;28.22;101020.41;5081765;28;1325;-44
2022/02/23 07:59:33;;;;;;;;;;;;;;;26.83;27.41;101030.09;5074208;28;1403;-43
2022/02/23 08:01:58;;;;;;;;;;;;;;;26.59;26.98;101037.28;5073561;28;1492;-43
2022/02/23 08:04:24;;;;;;;;;;;;;;;26.57;28.28;101042.00;5077697;28;1897;-44
2022/02/23 08:06:49;;;;;;;;;;;;;;;26.73;28.70;101046.50;5075356;28;1333;-42
2022/02/23 08:09:14;;;;;;;;;;;;;;;26.72;27.56;101040.28;5074150;28;1464;-41
2022/02/23 08:11:41;;;;;;;;;;;;;;;26.51;26.76;101041.66;5073406;28;1357;-41
2022/02/23 08:14:07;;;;;;;;;;;;;;;26.26;26.56;101043.53;5071771;28;1527;-42
2022/02/23 08:19:34;;;;;;;;;;;;;;;26.40;27.51;101042.88;5073258;28;1384;-42
2022/02/23 08:22:00;;;;;;;;;;;;;;;26.51;27.33;101046.22;5072151;28;1234;-42
2022/02/23 08:24:27;;;;;;;;;;;;;;;26.60;26.85;101052.44;5077175;28;1897;-42
2022/02/23 08:26:52;;;;;;;;;;;;;;;26.36;26.87;101046.91;5078904;28;1377;-44
2022/02/23 08:29:18;;;;;;;;;;;;;;;26.55;27.52;101044.03;5072814;28;1569;-44
2022/02/23 08:31:43;;;;;;;;;;;;;;;26.72;27.77;101044.81;5078150;28;1333;-43
2022/02/23 08:34:08;;;;;;;;;;;;;;;26.87;27.28;101045.81;5079567;28;1350;-43
2022/02/23 08:36:34;;;;;;;;;;;;;;;26.71;26.94;101045.84;5079460;28;1205;-42
2022/02/23 08:38:59;;;;;;;;;;;;;;;26.68;26.24;101044.31;5079780;28;1490;-43
2022/02/23 08:41:24;;;;;;;;;;;;;;;26.49;27.47;101048.25;5081519;28;1216;-42
2022/02/23 08:43:50;;;;;;;;;;;;;;;26.29;26.82;101048.59;5075829;28;1970;-42
2022/02/23 08:46:15;;;;;;;;;;;;;;;26.64;27.17;101059.19;5078234;28;1293;-45
2022/02/23 08:48:40;;;;;;;;;;;;;;;26.60;26.79;101061.38;5079682;28;1356;-43
2022/02/23 08:51:06;;;;;;;;;;;;;;;26.66;26.51;101065.22;5077719;28;1272;-43
2022/02/23 08:53:31;;;;;;;;;;;;;;;26.72;26.57;101067.28;5076895;28;1193;-42
2022/02/23 08:55:56;;;;;;;;;;;;;;;26.70;26.54;101063.03;5073366;28;1492;-44
2022/02/23 08:58:22;;;;;;;;;;;;;;;26.80;26.86;101069.09;5076715;28;1316;-39
2022/02/23 09:00:48;;;;;;;;;;;;;;;26.68;27.12;101065.91;5075125;28;1538;-36
2022/02/23 09:03:14;;;;;;;;;;;;;;;26.90;26.54;101068.91;5076298;28;1909;-37
2022/02/23 09:05:39;;;;;;;;;;;;;;;26.86;26.66;101072.97;5073524;28;1329;-36
2022/02/23 09:08:05;;;;;;;;;;;;;;;26.67;26.80;101066.94;5077954;28;852;-34
2022/02/23 09:10:30;;;;;;;;;;;;;;;26.66;27.03;101078.72;5077600;28;1441;-37
2022/02/23 09:12:56;;;;;;;;;;;;;;;26.90;27.15;101071.59;5074934;28;1277;-39
2022/02/23 09:15:21;;;;;;;;;;;;;;;26.60;26.19;101069.47;5074167;28;1209;-38
2022/02/23 09:17:46;;;;;;;;;;;;;;;26.55;25.63;101071.00;5078516;28;1265;-36
2022/02/23 09:20:12;;;;;;;;;;;;;;;26.61;26.22;101071.16;5077094;28;1111;-37
2022/02/23 09:22:37;;;;;;;;;;;;;;;26.32;27.40;101069.84;5075539;28;1259;-39
2022/02/23 09:25:03;;;;;;;;;;;;;;;26.42;27.34;101080.47;5074630;28;1964;-38
2022/02/23 09:27:28;;;;;;;;;;;;;;;26.61;26.70;101070.34;5075770;28;1374;-38
2022/02/23 09:29:53;;;;;;;;;;;;;;;26.83;26.45;101074.13;5077825;28;1500;-38
2022/02/23 09:32:20;;;;;;;;;;;;;;;26.86;25.81;101078.38;5075274;28;1317;-39
2022/02/23 09:34:45;;;;;;;;;;;;;;;26.78;26.51;101076.50;5078048;28;1372;-37
2022/02/23 09:37:10;;;;;;;;;;;;;;;26.62;27.41;101077.41;5077569;28;1262;-39
2022/02/23 09:39:36;;;;;;;;;;;;;;;26.81;27.05;101076.16;5076701;28;1495;-38
2022/02/23 09:42:01;;;;;;;;;;;;;;;26.52;25.66;101077.59;5077393;28;1574;-37
2022/02/23 09:44:27;;;;;;;;;;;;;;;26.33;25.90;101079.63;5075527;28;1918;-38
2022/02/23 09:46:52;;;;;;;;;;;;;;;26.28;25.02;101077.41;5071521;28;769;-37
2022/02/23 09:49:18;;;;;;;;;;;;;;;26.51;25.27;101084.84;5081652;28;1270;-38
2022/02/23 09:51:43;;;;;;;;;;;;;;;26.64;25.55;101080.78;5080967;28;1567;-37
2022/02/23 09:54:08;;;;;;;;;;;;;;;26.80;25.46;101087.13;5078923;28;1211;-37
2022/02/23 09:56:34;;;;;;;;;;;;;;;26.56;25.48;101086.19;5081572;28;1225;-38
2022/02/23 09:58:59;;;;;;;;;;;;;;;26.63;25.53;101079.94;5078763;28;1238;-37
2022/02/23 10:01:25;;;;;;;;;;;;;;;26.40;26.03;101075.25;5075802;28;1514;-38
2022/02/23 10:03:52;;;;;;;;;;;;;;;26.40;26.14;101077.09;5078721;28;1969;-38
2022/02/23 10:06:33;;;;;;;;;;;;;;;26.55;25.76;101079.94;5078129;28;1228;-38
2022/02/23 10:09:08;;;;;;;;;;;;;;;26.76;25.35;101073.13;5079309;28;1173;-36
2022/02/23 10:11:34;;;;;;;;;;;;;;;26.73;25.04;101074.34;5071890;28;821;-35
2022/02/23 10:14:02;;;;;;;;;;;;;;;26.75;25.39;101075.00;5077902;28;1205;-36
2022/02/23 10:16:33;;;;;;;;;;;;;;;26.67;25.30;101076.88;5079301;28;1292;-36
2022/02/23 10:19:24;;;;;;;;;;;;;;;26.66;25.21;101070.63;5078999;28;1303;-36
2022/02/23 10:21:52;;;;;;;;;;;;;;;26.67;25.01;101074.19;5074737;28;944;-36
2022/02/23 10:24:21;;;;;;;;;;;;;;;26.46;25.39;101079.09;5076852;28;1902;-36
2022/02/23 10:27:13;;;;;;;;;;;;;;;26.47;25.46;101071.88;5070719;28;793;-36
2022/02/23 10:29:38;;;;;;;;;;;;;;;26.52;25.21;101069.50;5070300;28;986;-36
2022/02/23 10:32:10;;;;;;;;;;;;;;;26.70;24.60;101058.50;5077125;28;1774;-36
2022/02/23 10:34:55;;;;;;;;;;;;;;;26.89;24.40;101053.72;5079478;28;825;-36
2022/02/23 10:37:21;;;;;;;;;;;;;;;26.77;24.63;101051.41;5078056;28;1309;-36
2022/02/23 10:39:50;;;;;;;;;;;;;;;26.63;25.13;101052.94;5076065;28;1392;-37
2022/02/23 10:42:16;;;;;;;;;;;;;;;26.65;24.01;101042.81;5072702;28;1197;-37
2022/02/23 10:44:43;;;;;;;;;;;;;;;26.69;23.87;101037.94;5075614;28;1973;-37
2022/02/23 10:47:08;;;;;;;;;;;;;;;26.57;24.31;101042.84;5074946;28;1194;-38
2022/02/23 10:49:34;;;;;;;;;;;;;;;26.64;24.77;101037.59;5072633;28;1152;-39
2022/02/23 10:52:06;;;;;;;;;;;;;;;26.60;25.33;101039.81;5071472;28;1259;-39
2022/02/23 10:54:31;;;;;;;;;;;;;;;26.60;25.22;101029.00;5072977;28;1159;-39
2022/02/23 10:56:56;;;;;;;;;;;;;;;26.76;24.75;101024.56;5076337;28;824;-39
2022/02/23 10:59:23;;;;;;;;;;;;;;;26.20;24.91;100907.53;5074271;28;1379;-39
2022/02/23 11:01:49;;;;;;;;;;;;;;;26.88;24.68;101022.31;5069521;28;1329;-38
2022/02/23 11:04:15;;;;;;;;;;;;;;;26.86;25.32;101021.69;5072668;28;1898;-39
2022/02/23 11:06:40;;;;;;;;;;;;;;;26.97;25.32;101023.16;5066964;28;1321;-38
2022/02/23 11:09:06;;;;;;;;;;;;;;;27.05;25.03;101011.50;5071723;28;1128;-38
2022/02/23 11:11:31;;;;;;;;;;;;;;;26.85;25.44;101020.84;5075917;28;1012;-39
2022/02/23 11:13:58;;;;;;;;;;;;;;;27.21;25.00;101014.09;5073400;28;1241;-39
2022/02/23 11:16:24;;;;;;;;;;;;;;;27.02;25.64;101018.09;5065366;28;1463;-38
2022/02/23 11:18:49;;;;;;;;;;;;;;;27.09;26.10;101015.53;5072051;28;1499;-38
2022/02/23 11:21:18;;;;;;;;;;;;;;;27.30;26.04;101014.06;5075868;28;1343;-39
2022/02/23 11:23:44;;;;;;;;;;;;;;;27.20;25.63;101011.59;5072179;28;2028;-40
2022/02/23 11:26:09;;;;;;;;;;;;;;;27.30;25.06;101008.66;5074003;28;1326;-38
2022/02/23 11:28:35;;;;;;;;;;;;;;;27.50;25.79;101007.19;5072346;28;1318;-38
2022/02/23 11:31:01;;;;;;;;;;;;;;;27.46;26.02;101010.44;5076416;28;1226;-42
2022/02/23 11:33:45;;;;;;;;;;;;;;;27.61;26.03;101005.91;5077879;28;1479;-38
2022/02/23 11:36:23;;;;;;;;;;;;;;;27.53;25.49;101016.78;5075769;28;1409;-38
2022/02/23 11:38:49;;;;;;;;;;;;;;;27.35;26.36;101006.25;5071312;28;1301;-39
2022/02/23 11:41:29;;;;;;;;;;;;;;;27.42;26.12;100998.28;5076609;28;898;-39
2022/02/23 11:44:00;;;;;;;;;;;;;;;27.30;26.37;101000.56;5073069;28;1910;-41
2022/02/23 11:46:26;;;;;;;;;;;;;;;27.26;26.43;101003.63;5074184;28;1274;-38
2022/02/23 11:49:02;;;;;;;;;;;;;;;27.24;26.28;100994.84;5077498;28;1246;-39
2022/02/23 11:51:31;;;;;;;;;;;;;;;27.27;26.85;101001.75;5073094;28;1403;-39
2022/02/23 11:53:57;;;;;;;;;;;;;;;27.21;27.03;101000.59;5072662;28;1417;-40
2022/02/23 11:56:22;;;;;;;;;;;;;;;27.12;26.89;101001.69;5067970;28;1215;-39
2022/02/23 11:58:48;;;;;;;;;;;;;;;27.10;26.86;101003.72;5076764;28;1301;-40
2022/02/23 12:01:14;;;;;;;;;;;;;;;27.08;26.70;100993.09;5074818;28;1202;-39
2022/02/23 12:03:42;;;;;;;;;;;;;;;27.15;26.77;100998.63;5076401;28;1901;-39
2022/02/23 12:06:09;;;;;;;;;;;;;;;27.14;27.17;101005.88;5076454;28;1153;-39
2022/02/23 12:08:44;;;;;;;;;;;;;;;27.18;26.75;101000.97;5078657;28;1217;-40
2022/02/23 12:11:16;;;;;;;;;;;;;;;27.05;27.09;101011.50;5077147;28;1230;-38
2022/02/23 12:13:45;;;;;;;;;;;;;;;27.08;26.73;101020.09;5072596;28;1313;-36
2022/02/23 12:16:22;;;;;;;;;;;;;;;27.20;26.98;101020.53;5075500;28;1288;-36
2022/02/23 12:18:49;;;;;;;;;;;;;;;27.24;26.44;101024.56;5076360;28;1535;-36
2022/02/23 12:21:14;;;;;;;;;;;;;;;27.12;26.96;101024.13;5079038;28;1602;-36
2022/02/23 12:23:40;;;;;;;;;;;;;;;27.17;27.06;101029.00;5094300;28;1893;-37
2022/02/23 12:26:10;;;;;;;;;;;;;;;27.35;26.78;101028.72;5076754;28;1563;-36
2022/02/23 12:28:36;;;;;;;;;;;;;;;27.42;26.56;101026.16;5076865;28;1528;-38
2022/02/23 12:31:18;;;;;;;;;;;;;;;27.26;26.63;101024.38;5076212;28;1377;-40
2022/02/23 12:33:43;;;;;;;;;;;;;;;27.62;26.73;101029.25;5084780;28;1522;-35
2022/02/23 12:36:09;;;;;;;;;;;;;;;27.67;26.33;101023.28;5083255;28;1562;-36
2022/02/23 12:38:36;;;;;;;;;;;;;;;27.58;26.74;101022.50;5074837;28;1233;-36
2022/02/23 12:41:09;;;;;;;;;;;;;;;27.35;26.84;101027.88;5084996;28;1551;-37
2022/02/23 12:43:34;;;;;;;;;;;;;;;27.21;26.76;101027.59;5078464;28;1988;-38
2022/02/23 12:46:00;;;;;;;;;;;;;;;27.10;26.77;101020.75;5078082;28;1249;-36
2022/02/23 12:48:30;;;;;;;;;;;;;;;27.28;26.43;101016.13;5076109;28;1304;-36